Time;durP1;ratioP1;P1;durP2;ratioP2;P2;SDS_P1;SDS_P2;PMS_P1;PMS_P2;Temp;Humidity;BMP_temperature;BMP_pressure;BME280_temperature;BME280_humidity;BME280_pressure;Samples;Min_cycle;Max_cycle;Signal;HPM_P1;HPM_P2
2022/11/23 00:01:33;;;;;;;119.78;69.05;;;;;;;1.59;100.00;98565.09;5056607;28;20099;-89
2022/11/23 00:04:11;;;;;;;120.53;67.90;;;;;;;1.52;100.00;98551.59;5056421;28;20415;-89
2022/11/23 00:06:37;;;;;;;108.63;61.65;;;;;;;1.57;100.00;98548.91;5056380;28;20025;-88
2022/11/23 00:09:03;;;;;;;104.72;61.92;;;;;;;1.43;100.00;98537.31;5074556;28;20021;-88
2022/11/23 00:11:29;;;;;;;98.95;58.60;;;;;;;1.55;100.00;98553.22;5074042;28;20028;-89
2022/11/23 00:13:55;;;;;;;105.75;63.25;;;;;;;1.51;100.00;98555.03;5074041;28;20524;-88
2022/11/23 00:16:23;;;;;;;101.22;62.45;;;;;;;1.49;100.00;98555.09;5055898;28;20033;-88
2022/11/23 00:19:01;;;;;;;106.40;60.30;;;;;;;1.50;100.00;98556.75;5056349;28;20024;-88
2022/11/23 00:21:29;;;;;;;102.95;59.50;;;;;;;1.36;100.00;98533.22;5074177;28;20017;-88
2022/11/23 00:23:54;;;;;;;101.88;59.58;;;;;;;1.42;100.00;98542.47;5056160;28;20103;-88
2022/11/23 00:26:20;;;;;;;102.53;59.15;;;;;;;1.48;100.00;98550.00;5055911;28;20073;-88
2022/11/23 00:28:45;;;;;;;102.38;62.35;;;;;;;1.44;100.00;98544.09;5074070;28;20063;-88
2022/11/23 00:31:13;;;;;;;96.80;61.63;;;;;;;1.50;100.00;98553.34;5073985;28;20017;-88
2022/11/23 00:33:39;;;;;;;95.47;60.42;;;;;;;1.47;100.00;98554.25;5055972;28;20020;-88
2022/11/23 00:36:10;;;;;;;90.97;58.40;;;;;;;1.52;100.00;98550.72;5084382;28;20364;-88
2022/11/23 00:38:36;;;;;;;93.63;58.08;;;;;;;1.57;100.00;98548.91;5093921;28;20118;-88
2022/11/23 00:41:08;;;;;;;91.05;57.63;;;;;;;1.59;100.00;98555.66;5092837;28;20111;-88
2022/11/23 00:43:33;;;;;;;83.30;52.83;;;;;;;1.63;100.00;98558.97;5093848;28;20020;-89
2022/11/23 00:46:06;;;;;;;95.13;56.72;;;;;;;1.63;100.00;98557.25;5094104;28;20072;-88
2022/11/23 00:48:32;;;;;;;90.63;54.08;;;;;;;1.66;100.00;98559.75;5092342;28;20032;-88
2022/11/23 00:51:00;;;;;;;91.25;52.63;;;;;;;1.62;100.00;98547.88;5092692;28;20129;-88
2022/11/23 00:53:25;;;;;;;92.68;55.05;;;;;;;1.66;100.00;98552.03;5092290;28;20056;-88
2022/11/23 00:55:52;;;;;;;91.32;55.65;;;;;;;1.73;100.00;98558.69;5092315;28;20451;-87
2022/11/23 00:58:17;;;;;;;89.55;53.80;;;;;;;1.76;100.00;98557.75;5092334;28;20153;-88
2022/11/23 01:00:43;;;;;;;82.20;51.70;;;;;;;1.78;100.00;98550.03;5093700;28;20107;-88
2022/11/23 01:03:08;;;;;;;86.03;52.72;;;;;;;1.84;100.00;98565.25;5092224;28;20457;-88
2022/11/23 01:05:37;;;;;;;85.35;50.58;;;;;;;1.88;100.00;98567.66;5092584;28;20101;-88
2022/11/23 01:08:03;;;;;;;77.60;48.88;;;;;;;1.91;100.00;98570.16;5093577;28;20468;-88
2022/11/23 01:10:29;;;;;;;80.20;50.38;;;;;;;1.94;100.00;98571.81;5093146;28;20099;-88
2022/11/23 01:12:55;;;;;;;79.60;51.67;;;;;;;1.88;100.00;98554.84;5092311;28;20099;-88
2022/11/23 01:15:20;;;;;;;78.07;51.00;;;;;;;1.95;100.00;98565.78;5092022;28;20135;-88
2022/11/23 01:17:46;;;;;;;80.63;50.40;;;;;;;1.98;100.00;98563.97;5093335;28;20031;-88
2022/11/23 01:20:11;;;;;;;82.57;51.80;;;;;;;1.94;100.00;98558.97;5093394;28;20024;-88
2022/11/23 01:22:36;;;;;;;84.60;52.25;;;;;;;2.02;100.00;98564.69;5091617;28;20016;-88
2022/11/23 01:25:02;;;;;;;80.93;52.30;;;;;;;1.97;100.00;98564.84;5093191;28;20032;-88
2022/11/23 01:27:27;;;;;;;84.15;53.65;;;;;;;2.05;100.00;98571.47;5093117;28;20027;-88
2022/11/23 01:29:53;;;;;;;83.85;53.30;;;;;;;2.05;100.00;98574.03;5092017;28;20020;-88
2022/11/23 01:32:18;;;;;;;86.72;54.53;;;;;;;2.04;100.00;98582.66;5092967;28;20073;-88
2022/11/23 01:34:43;;;;;;;82.35;51.67;;;;;;;2.04;100.00;98585.22;5088407;28;20041;-88
2022/11/23 01:37:09;;;;;;;86.30;52.17;;;;;;;1.99;100.00;98578.47;5072698;28;20021;-88
2022/11/23 01:39:34;;;;;;;77.18;50.92;;;;;;;1.97;100.00;98581.97;5054410;28;20085;-88
2022/11/23 01:41:59;;;;;;;83.15;50.38;;;;;;;2.00;100.00;98585.28;5072674;28;20040;-88
2022/11/23 01:44:34;;;;;;;82.55;50.95;;;;;;;2.01;100.00;98586.13;5054695;28;20460;-88
2022/11/23 01:47:02;;;;;;;92.75;58.33;;;;;;;2.05;100.00;98590.28;5054777;28;20048;-88
2022/11/23 01:49:34;;;;;;;126.10;74.72;;;;;;;2.05;100.00;98581.75;5054366;28;20024;-89
2022/11/23 01:52:05;;;;;;;97.03;60.17;;;;;;;2.04;100.00;98577.50;5072311;28;20024;-88
2022/11/23 01:54:35;;;;;;;101.00;64.55;;;;;;;1.97;100.00;98575.09;5072110;28;20028;-88
2022/11/23 01:57:06;;;;;;;124.13;74.50;;;;;;;2.05;100.00;98579.19;5072596;28;20103;-88
2022/11/23 01:59:32;;;;;;;;;;;;;;;2.06;100.00;98579.13;5054619;28;20017;-88
2022/11/23 02:01:57;;;;;;;94.22;58.65;;;;;;;1.99;100.00;98570.78;5054344;28;19908;-88
2022/11/23 02:04:28;;;;;;;82.93;52.42;;;;;;;2.05;100.00;98582.59;5072315;28;20035;-88
2022/11/23 02:06:55;;;;;;;86.70;53.78;;;;;;;2.03;100.00;98583.53;5054221;28;20609;-88
2022/11/23 02:09:21;;;;;;;88.80;56.45;;;;;;;2.00;100.00;98574.19;5072286;28;20045;-88
2022/11/23 02:11:47;;;;;;;83.68;52.75;;;;;;;2.06;100.00;98586.00;5072051;28;20028;-88
2022/11/23 02:14:13;;;;;;;90.43;57.72;;;;;;;2.08;100.00;98584.25;5072531;28;20028;-88
2022/11/23 02:16:38;;;;;;;87.40;53.72;;;;;;;2.02;100.00;98574.97;5071449;28;20104;-88
2022/11/23 02:19:11;;;;;;;82.07;52.67;;;;;;;2.11;100.00;98586.72;5072078;28;20028;-88
2022/11/23 02:21:38;;;;;;;85.38;50.17;;;;;;;2.17;100.00;98591.66;5053749;28;20046;-88
2022/11/23 02:24:13;;;;;;;88.13;58.00;;;;;;;2.15;100.00;98585.72;5054267;28;20066;-88
2022/11/23 02:26:39;;;;;;;86.00;53.28;;;;;;;2.21;100.00;98594.09;5071864;28;20026;-88
2022/11/23 02:29:10;;;;;;;86.35;52.25;;;;;;;2.24;100.00;98604.28;5072303;28;20036;-88
2022/11/23 02:31:36;;;;;;;75.65;50.13;;;;;;;2.23;100.00;98600.06;5053579;28;20024;-88
2022/11/23 02:34:01;;;;;;;76.75;48.65;;;;;;;2.22;100.00;98585.50;5053885;28;20675;-88
2022/11/23 02:36:29;;;;;;;73.97;46.72;;;;;;;2.31;100.00;98598.97;5088070;28;20360;-88
2022/11/23 02:38:58;;;;;;;74.60;47.40;;;;;;;2.31;100.00;98597.22;5090805;28;20024;-88
2022/11/23 02:41:24;;;;;;;72.68;46.30;;;;;;;2.29;100.00;98587.91;5092205;28;20020;-88
2022/11/23 02:43:53;;;;;;;77.35;48.38;;;;;;;2.27;100.00;98592.22;5090810;28;20028;-88
2022/11/23 02:46:19;;;;;;;80.53;49.60;;;;;;;2.19;100.00;98582.19;5089293;28;20028;-88
2022/11/23 02:48:44;;;;;;;85.65;52.83;;;;;;;2.20;100.00;98583.88;5072174;28;20493;-88
2022/11/23 02:51:10;;;;;;;81.63;50.95;;;;;;;2.19;100.00;98584.75;5089614;28;20491;-88
2022/11/23 02:53:35;;;;;;;86.25;51.33;;;;;;;2.12;100.00;98578.13;5072457;28;20526;-87
2022/11/23 02:56:00;;;;;;;81.03;53.20;;;;;;;2.20;100.00;98589.03;5089817;28;20367;-88
2022/11/23 02:58:26;;;;;;;82.07;52.42;;;;;;;2.19;100.00;98595.03;5089243;28;20032;-88
2022/11/23 03:00:51;;;;;;;77.78;52.17;;;;;;;2.12;100.00;98580.69;5089698;28;20534;-88
2022/11/23 03:03:17;;;;;;;83.18;55.03;;;;;;;2.19;100.00;98595.88;5072521;28;20032;-88
2022/11/23 03:05:42;;;;;;;80.85;54.72;;;;;;;2.19;100.00;98588.19;5089435;28;20036;-88
2022/11/23 03:08:07;;;;;;;73.35;48.40;;;;;;;2.16;100.00;98579.72;5072415;28;20035;-88
2022/11/23 03:10:33;;;;;;;69.00;46.47;;;;;;;2.19;100.00;98584.75;5089098;28;20040;-88
2022/11/23 03:12:58;;;;;;;77.22;48.80;;;;;;;2.20;100.00;98589.84;5089143;28;20047;-88
2022/11/23 03:15:23;;;;;;;86.03;53.67;;;;;;;2.17;100.00;98592.50;5072410;28;20039;-88
2022/11/23 03:17:49;;;;;;;83.07;50.53;;;;;;;2.17;100.00;98589.09;5091026;28;20039;-88
2022/11/23 03:20:15;;;;;;;82.82;51.63;;;;;;;2.12;100.00;98586.66;5090544;28;20020;-88
2022/11/23 03:22:40;;;;;;;82.10;49.85;;;;;;;2.14;100.00;98579.75;5090294;28;20402;-88
2022/11/23 03:25:06;;;;;;;71.80;46.00;;;;;;;2.12;100.00;98580.69;5090374;28;20028;-88
2022/11/23 03:27:32;;;;;;;81.88;53.58;;;;;;;2.11;100.00;98581.59;5091176;28;20031;-88
2022/11/23 03:29:58;;;;;;;78.03;50.53;;;;;;;2.13;100.00;98588.34;5095434;28;20580;-88
2022/11/23 03:32:24;;;;;;;78.63;51.38;;;;;;;2.09;100.00;98580.78;5094234;28;20123;-88
2022/11/23 03:34:49;;;;;;;84.05;55.38;;;;;;;2.09;100.00;98575.63;5093833;28;20594;-88
2022/11/23 03:37:14;;;;;;;88.00;56.15;;;;;;;2.05;100.00;98568.91;5094241;28;20109;-88
2022/11/23 03:39:40;;;;;;;88.72;56.20;;;;;;;2.12;100.00;98575.56;5093745;28;20028;-88
2022/11/23 03:42:05;;;;;;;79.90;52.75;;;;;;;2.07;100.00;98572.28;5095241;28;20031;-88
2022/11/23 03:44:31;;;;;;;84.03;53.63;;;;;;;1.95;100.00;98558.91;5095214;28;20023;-88
2022/11/23 03:46:56;;;;;;;82.78;52.75;;;;;;;2.03;100.00;98584.38;5094103;28;20467;-88
2022/11/23 03:49:21;;;;;;;81.72;54.38;;;;;;;2.00;100.00;98572.44;5095600;28;20464;-88
2022/11/23 03:51:47;;;;;;;87.63;57.53;;;;;;;2.01;100.00;98583.56;5093580;28;20050;-88
2022/11/23 03:54:12;;;;;;;83.47;52.47;;;;;;;1.98;100.00;98576.81;5095146;28;20030;-88
2022/11/23 03:56:37;;;;;;;78.50;52.55;;;;;;;1.92;100.00;98581.28;5093491;28;20039;-88
2022/11/23 03:59:03;;;;;;;77.80;51.80;;;;;;;1.86;100.00;98569.47;5093502;28;20062;-88
2022/11/23 04:01:28;;;;;;;84.10;53.42;;;;;;;1.91;100.00;98575.28;5093474;28;20076;-88
2022/11/23 04:03:53;;;;;;;87.10;53.13;;;;;;;1.95;100.00;98583.75;5094754;28;20020;-88
2022/11/23 04:06:19;;;;;;;76.05;50.22;;;;;;;1.86;100.00;98572.03;5094969;28;20030;-88
2022/11/23 04:08:44;;;;;;;75.07;50.90;;;;;;;1.94;100.00;98590.63;5093329;28;20028;-88
2022/11/23 04:11:10;;;;;;;79.25;49.35;;;;;;;1.90;100.00;98588.19;5093571;28;20526;-89
2022/11/23 04:13:35;;;;;;;77.13;49.13;;;;;;;1.86;100.00;98592.56;5094464;28;20042;-88
2022/11/23 04:16:00;;;;;;;77.32;49.95;;;;;;;1.83;100.00;98584.94;5085915;28;20143;-88
2022/11/23 04:18:26;;;;;;;80.85;50.08;;;;;;;1.86;100.00;98581.47;5072881;28;20494;-88
2022/11/23 04:20:51;;;;;;;76.82;50.08;;;;;;;1.86;100.00;98586.59;5074072;28;20025;-88
2022/11/23 04:23:16;;;;;;;91.55;58.70;;;;;;;1.85;100.00;98587.44;5072966;28;20048;-88
2022/11/23 04:25:42;;;;;;;80.57;52.25;;;;;;;1.75;100.00;98556.91;5072506;28;20364;-88
2022/11/23 04:28:07;;;;;;;86.82;51.75;;;;;;;1.82;100.00;98573.00;5072568;28;20498;-88
2022/11/23 04:30:33;;;;;;;79.00;49.40;;;;;;;1.84;100.00;98576.34;5072359;28;20106;-88
2022/11/23 04:32:58;;;;;;;80.85;51.17;;;;;;;1.84;100.00;98572.94;5072731;28;20520;-88
2022/11/23 04:35:23;;;;;;;85.15;53.92;;;;;;;1.87;100.00;98570.28;5072446;28;20183;-88
2022/11/23 04:37:49;;;;;;;85.55;52.13;;;;;;;1.83;100.00;98566.97;5073361;28;20103;-88
2022/11/23 04:40:14;;;;;;;76.32;50.75;;;;;;;1.87;100.00;98573.69;5072462;28;20086;-88
2022/11/23 04:42:39;;;;;;;80.68;51.70;;;;;;;1.84;100.00;98563.50;5073701;28;20460;-88
2022/11/23 04:45:05;;;;;;;80.80;51.17;;;;;;;1.89;100.00;98576.22;5072313;28;20021;-88
2022/11/23 04:47:32;;;;;;;87.28;56.47;;;;;;;1.86;100.00;98566.88;5074131;28;20367;-88
2022/11/23 04:49:57;;;;;;;90.90;55.08;;;;;;;1.91;100.00;98572.72;5073838;28;20021;-88
2022/11/23 04:52:22;;;;;;;80.25;51.60;;;;;;;1.93;100.00;98578.66;5072437;28;20043;-88
2022/11/23 04:54:48;;;;;;;81.00;49.88;;;;;;;1.86;100.00;98573.75;5073386;28;20032;-88
2022/11/23 04:57:13;;;;;;;81.00;51.70;;;;;;;1.91;100.00;98590.69;5072086;28;20102;-88
2022/11/23 04:59:39;;;;;;;83.35;50.08;;;;;;;1.90;100.00;98572.78;5071704;28;20024;-88
2022/11/23 05:02:04;;;;;;;82.70;51.38;;;;;;;1.91;100.00;98580.44;5072103;28;20074;-88
2022/11/23 05:04:30;;;;;;;85.13;51.95;;;;;;;1.87;100.00;98581.41;5072064;28;20052;-88
2022/11/23 05:06:55;;;;;;;82.75;55.88;;;;;;;1.88;100.00;98585.66;5071780;28;20021;-88
2022/11/23 05:09:20;;;;;;;93.85;57.65;;;;;;;1.79;100.00;98570.50;5071739;28;20407;-88
2022/11/23 05:11:46;;;;;;;85.20;56.40;;;;;;;1.83;100.00;98587.50;5072900;28;20482;-87
2022/11/23 05:14:11;;;;;;;82.60;53.80;;;;;;;1.82;100.00;98588.41;5072975;28;20021;-88
2022/11/23 05:16:37;;;;;;;79.45;50.25;;;;;;;1.88;100.00;98598.47;5072890;28;20099;-88
2022/11/23 05:19:02;;;;;;;84.22;51.47;;;;;;;1.79;100.00;98580.78;5071554;28;20066;-86
2022/11/23 05:21:27;;;;;;;85.30;54.03;;;;;;;1.82;100.00;98596.09;5071510;28;20077;-86
2022/11/23 05:23:53;;;;;;;80.15;51.67;;;;;;;1.76;100.00;98580.84;5071372;28;20052;-86
2022/11/23 05:26:18;;;;;;;80.22;51.00;;;;;;;1.83;100.00;98600.34;5071564;28;20028;-86
2022/11/23 05:28:44;;;;;;;77.53;50.70;;;;;;;1.86;100.00;98594.28;5071247;28;20119;-86
2022/11/23 05:31:09;;;;;;;83.13;53.55;;;;;;;1.83;100.00;98596.94;5073156;28;20012;-86
2022/11/23 05:33:35;;;;;;;83.38;52.67;;;;;;;1.76;100.00;98583.41;5072772;28;20473;-85
2022/11/23 05:36:02;;;;;;;86.05;52.75;;;;;;;1.86;100.00;98599.44;5057884;28;20036;-94
2022/11/23 05:38:27;;;;;;;78.60;51.20;;;;;;;1.81;100.00;98591.81;5034708;28;20039;-86
2022/11/23 05:40:53;;;;;;;82.63;52.88;;;;;;;1.83;100.00;98597.78;5052371;28;20415;-86
2022/11/23 05:43:18;;;;;;;84.75;52.95;;;;;;;1.82;100.00;98590.13;5052413;28;20013;-86
2022/11/23 05:45:43;;;;;;;82.15;54.25;;;;;;;1.82;100.00;98588.41;5052565;28;20029;-86
2022/11/23 05:48:09;;;;;;;103.40;65.75;;;;;;;1.84;100.00;98578.06;5034735;28;20021;-86
2022/11/23 05:50:35;;;;;;;105.13;67.28;;;;;;;1.86;100.00;98579.72;5052038;28;20029;-86
2022/11/23 05:53:00;;;;;;;110.68;66.65;;;;;;;1.88;100.00;98585.66;5052179;28;20024;-86
2022/11/23 05:55:26;;;;;;;130.75;75.72;;;;;;;1.93;100.00;98599.19;5052410;28;20035;-86
2022/11/23 05:57:51;;;;;;;112.22;66.53;;;;;;;1.90;100.00;98593.31;5052379;28;20102;-86
2022/11/23 06:00:17;;;;;;;99.70;61.00;;;;;;;1.93;100.00;98591.47;5052440;28;20090;-86
2022/11/23 06:02:42;;;;;;;95.07;59.40;;;;;;;1.96;100.00;98601.69;5052245;28;20468;-86
2022/11/23 06:05:08;;;;;;;95.18;59.92;;;;;;;1.95;100.00;98589.72;5010073;28;20034;-86
2022/11/23 06:07:34;;;;;;;101.70;63.15;;;;;;;1.96;100.00;98598.28;4993666;28;20092;-86
2022/11/23 06:10:00;;;;;;;106.63;65.35;;;;;;;1.93;100.00;98593.22;5009888;28;20053;-86
2022/11/23 06:12:27;;;;;;;95.60;59.65;;;;;;;1.93;100.00;98591.47;5010069;28;20030;-86
2022/11/23 06:14:53;;;;;;;102.05;62.47;;;;;;;1.97;100.00;98598.22;4993299;28;20108;-86
2022/11/23 06:17:18;;;;;;;101.05;62.50;;;;;;;1.98;100.00;98597.34;4993496;28;20129;-86
2022/11/23 06:19:43;;;;;;;98.60;62.10;;;;;;;1.96;100.00;98593.13;4993160;28;20405;-86
2022/11/23 06:22:09;;;;;;;94.40;63.95;;;;;;;1.99;100.00;98603.31;4993410;28;20026;-86
2022/11/23 06:24:34;;;;;;;106.00;65.10;;;;;;;1.86;100.00;98576.31;5009923;28;20034;-86
2022/11/23 06:26:59;;;;;;;96.03;62.80;;;;;;;1.97;100.00;98594.81;5009619;28;20124;-86
2022/11/23 06:29:25;;;;;;;95.80;61.72;;;;;;;2.04;100.00;98605.75;4993334;28;20172;-86
2022/11/23 06:31:50;;;;;;;91.68;60.83;;;;;;;2.05;100.00;98598.00;5009546;28;20067;-86
2022/11/23 06:34:15;;;;;;;133.23;75.60;;;;;;;2.10;100.00;98605.56;5011346;28;20033;-86
2022/11/23 06:36:42;;;;;;;107.00;65.35;;;;;;;2.13;100.00;98610.63;5049212;28;20029;-86
2022/11/23 06:39:07;;;;;;;98.32;59.42;;;;;;;2.14;100.00;98612.31;5049418;28;20032;-86
2022/11/23 06:41:33;;;;;;;163.68;85.25;;;;;;;2.12;100.00;98612.34;5051229;28;20469;-86
2022/11/23 06:43:58;;;;;;;239.68;120.40;;;;;;;2.17;100.00;98623.34;5070219;28;20528;-86
2022/11/23 06:46:23;;;;;;;149.70;81.45;;;;;;;2.13;100.00;98623.47;5070646;28;20021;-86
2022/11/23 06:48:49;;;;;;;125.30;72.30;;;;;;;2.16;100.00;98634.50;5071613;28;20028;-86
2022/11/23 06:51:14;;;;;;;117.70;69.72;;;;;;;2.18;100.00;98640.41;5070571;28;20021;-86
2022/11/23 06:53:41;;;;;;;112.28;71.03;;;;;;;2.14;100.00;98632.84;5072010;28;20032;-86
2022/11/23 06:56:07;;;;;;;96.90;60.90;;;;;;;2.16;100.00;98638.81;5071727;28;20032;-86
2022/11/23 06:58:33;;;;;;;87.55;55.90;;;;;;;2.28;100.00;98656.44;5070291;28;20395;-86
2022/11/23 07:01:04;;;;;;;88.47;56.83;;;;;;;2.26;100.00;98653.06;5072011;28;20025;-86
2022/11/23 07:03:29;;;;;;;93.05;59.45;;;;;;;2.29;100.00;98659.84;5076121;28;20074;-86
2022/11/23 07:05:55;;;;;;;93.68;58.40;;;;;;;2.29;100.00;98668.38;5074020;28;20016;-86
2022/11/23 07:08:20;;;;;;;82.95;54.00;;;;;;;2.30;100.00;98661.50;5075630;28;20028;-86
2022/11/23 07:10:46;;;;;;;95.70;60.15;;;;;;;2.24;100.00;98662.53;5074027;28;20097;-86
2022/11/23 07:13:13;;;;;;;83.10;53.08;;;;;;;2.23;100.00;98671.13;5074219;28;20028;-86
2022/11/23 07:15:39;;;;;;;97.38;57.35;;;;;;;2.23;100.00;98682.25;5075666;28;20054;-86
2022/11/23 07:18:05;;;;;;;107.60;67.25;;;;;;;2.19;100.00;98677.22;5073977;28;20036;-86
2022/11/23 07:20:31;;;;;;;124.20;73.65;;;;;;;2.24;100.00;98677.97;5075732;28;20048;-86
2022/11/23 07:23:09;;;;;;;93.65;59.03;;;;;;;2.25;100.00;98680.47;5073785;28;20063;-86
2022/11/23 07:25:36;;;;;;;91.72;58.35;;;;;;;2.21;100.00;98678.88;5073974;28;20222;-86
2022/11/23 07:28:03;;;;;;;91.15;55.30;;;;;;;2.12;100.00;98683.44;5073891;28;20029;-86
2022/11/23 07:30:30;;;;;;;90.85;57.15;;;;;;;2.07;100.00;98687.88;5073845;28;20074;-86
2022/11/23 07:33:00;;;;;;;87.82;55.78;;;;;;;1.91;100.00;98670.31;5073594;28;20505;-86
2022/11/23 07:35:26;;;;;;;89.72;54.95;;;;;;;1.95;100.00;98686.47;5064917;28;20045;-86
2022/11/23 07:37:52;;;;;;;87.32;55.95;;;;;;;1.89;100.00;98684.88;5036909;28;20029;-86
2022/11/23 07:40:17;;;;;;;87.88;52.35;;;;;;;1.88;100.00;98688.34;5054776;28;20464;-86
2022/11/23 07:42:43;;;;;;;101.88;58.28;;;;;;;1.79;100.00;98670.63;5037163;28;20029;-86
2022/11/23 07:45:09;;;;;;;84.78;53.22;;;;;;;1.87;100.00;98686.69;5037038;28;20052;-85
2022/11/23 07:47:34;;;;;;;98.40;64.20;;;;;;;1.79;100.00;98678.34;5037081;28;20418;-86
2022/11/23 07:50:00;;;;;;;110.90;69.22;;;;;;;1.78;100.00;98676.66;5054650;28;20020;-86
2022/11/23 07:52:25;;;;;;;95.25;60.15;;;;;;;1.81;100.00;98683.41;5036935;28;20062;-86
2022/11/23 07:54:50;;;;;;;104.28;68.30;;;;;;;1.75;100.00;98679.28;5036694;28;20055;-86
2022/11/23 07:57:16;;;;;;;95.45;59.58;;;;;;;1.75;100.00;98680.13;5037054;28;20028;-86
2022/11/23 07:59:41;;;;;;;90.05;59.70;;;;;;;1.73;100.00;98681.91;5036876;28;20020;-86
2022/11/23 08:02:09;;;;;;;94.10;62.53;;;;;;;1.85;100.00;98703.00;5054457;28;20021;-85
2022/11/23 08:04:34;;;;;;;91.13;58.45;;;;;;;1.86;100.00;98699.56;5054598;28;20155;-86
2022/11/23 08:07:01;;;;;;;86.15;54.42;;;;;;;1.88;100.00;98698.63;5054578;28;20107;-86
2022/11/23 08:09:26;;;;;;;93.43;58.95;;;;;;;1.87;100.00;98703.81;5036429;28;20365;-86
2022/11/23 08:11:52;;;;;;;94.35;59.28;;;;;;;1.88;100.00;98700.34;5054627;28;20024;-86
2022/11/23 08:14:17;;;;;;;96.68;59.17;;;;;;;1.91;100.00;98703.69;5035865;28;20520;-86
2022/11/23 08:16:42;;;;;;;96.35;58.85;;;;;;;1.95;100.00;98705.28;5036469;28;20108;-86
2022/11/23 08:19:08;;;;;;;87.75;55.45;;;;;;;1.98;100.00;98709.47;5053960;28;20147;-86
2022/11/23 08:21:33;;;;;;;85.88;53.47;;;;;;;1.92;100.00;98691.69;5036379;28;20108;-86
2022/11/23 08:23:58;;;;;;;92.57;56.53;;;;;;;2.03;100.00;98704.25;5035931;28;20350;-86
2022/11/23 08:26:24;;;;;;;90.15;57.80;;;;;;;1.99;100.00;98688.91;5054293;28;20025;-86
2022/11/23 08:28:49;;;;;;;88.40;54.97;;;;;;;2.03;100.00;98702.50;5011524;28;20413;-86
2022/11/23 08:31:14;;;;;;;90.10;54.90;;;;;;;2.11;100.00;98707.44;4995380;28;20116;-85
2022/11/23 08:33:40;;;;;;;85.78;54.45;;;;;;;1.99;100.00;98693.22;5011940;28;20180;-86
2022/11/23 08:36:07;;;;;;;87.60;54.22;;;;;;;2.06;100.00;98704.97;5042967;28;20049;-86
2022/11/23 08:38:34;;;;;;;98.63;56.00;;;;;;;2.10;100.00;98701.44;5051232;28;20131;-86
2022/11/23 08:41:04;;;;;;;88.80;54.25;;;;;;;2.11;100.00;98702.31;5034422;28;20142;-86
2022/11/23 08:43:30;;;;;;;85.40;53.70;;;;;;;2.09;100.00;98702.34;5051360;28;20408;-86
2022/11/23 08:45:56;;;;;;;90.93;58.67;;;;;;;2.08;100.00;98698.09;5051143;28;20086;-86
2022/11/23 08:48:22;;;;;;;91.97;58.58;;;;;;;2.12;100.00;98696.28;5034539;28;20029;-86
2022/11/23 08:50:47;;;;;;;94.93;58.55;;;;;;;2.02;100.00;98684.56;5034326;28;20032;-86
2022/11/23 08:53:13;;;;;;;96.07;57.20;;;;;;;2.05;100.00;98695.59;5051168;28;20031;-86
2022/11/23 08:55:38;;;;;;;88.63;53.47;;;;;;;1.99;100.00;98680.38;5051180;28;20112;-86
2022/11/23 08:58:04;;;;;;;85.85;56.90;;;;;;;2.07;100.00;98690.44;5034187;28;20036;-86
2022/11/23 09:00:29;;;;;;;88.95;55.92;;;;;;;2.06;100.00;98689.56;5063280;28;20090;-86
2022/11/23 09:02:58;;;;;;;100.30;59.10;;;;;;;2.16;100.00;98701.28;5073314;28;20028;-86
2022/11/23 09:05:24;;;;;;;91.18;56.78;;;;;;;2.17;100.00;98710.69;5072140;28;20025;-86
2022/11/23 09:07:49;;;;;;;84.57;55.15;;;;;;;2.22;100.00;98705.41;5072130;28;20341;-86
2022/11/23 09:10:15;;;;;;;94.90;58.67;;;;;;;2.19;100.00;98698.66;5073515;28;20024;-86
2022/11/23 09:12:41;;;;;;;90.40;54.85;;;;;;;2.30;100.00;98698.31;5073399;28;20028;-86
2022/11/23 09:15:06;;;;;;;86.28;53.80;;;;;;;2.28;100.00;98689.00;5071779;28;20020;-85
2022/11/23 09:17:32;;;;;;;81.20;52.13;;;;;;;2.25;100.00;98695.88;5071921;28;20063;-85
2022/11/23 09:19:58;;;;;;;86.28;52.80;;;;;;;2.29;100.00;98691.50;5071451;28;20056;-85
2022/11/23 09:22:23;;;;;;;89.63;55.38;;;;;;;2.26;100.00;98689.03;5072973;28;20019;-85
2022/11/23 09:24:48;;;;;;;87.57;54.15;;;;;;;2.24;100.00;98691.66;5070954;28;20463;-85
2022/11/23 09:27:14;;;;;;;92.65;54.00;;;;;;;2.24;100.00;98689.06;5072875;28;20486;-85
2022/11/23 09:29:39;;;;;;;89.35;55.15;;;;;;;2.27;100.00;98679.56;5073295;28;20024;-85
2022/11/23 09:32:04;;;;;;;93.85;57.25;;;;;;;2.25;100.00;98674.50;5072638;28;20035;-85
2022/11/23 09:34:30;;;;;;;121.95;74.45;;;;;;;2.17;100.00;98663.59;5068653;28;20114;-85
2022/11/23 09:36:56;;;;;;;103.55;63.47;;;;;;;2.24;100.00;98662.53;5034649;28;20040;-85
2022/11/23 09:39:22;;;;;;;89.80;55.25;;;;;;;2.26;100.00;98658.19;5034973;28;20279;-85
2022/11/23 09:42:25;;;;;;;88.25;53.65;;;;;;;2.30;100.00;98666.66;5034986;28;20669;-85
2022/11/23 09:45:27;;;;;;;82.13;52.97;;;;;;;2.35;100.00;98663.06;5052644;28;20029;-85
2022/11/23 09:48:13;;;;;;;89.05;55.10;;;;;;;2.38;100.00;98665.53;5052523;28;20024;-85
2022/11/23 09:50:53;;;;;;;121.07;67.50;;;;;;;2.35;100.00;98652.78;5034668;28;20158;-85
2022/11/23 09:53:28;;;;;;;122.22;68.63;;;;;;;2.43;100.00;98650.81;5052419;28;20028;-84
2022/11/23 09:55:56;;;;;;;276.38;117.57;;;;;;;2.48;100.00;98656.66;5052378;28;20021;-85
2022/11/23 09:58:25;;;;;;;341.73;131.95;;;;;;;2.60;100.00;98655.47;5029806;28;20029;-85
2022/11/23 10:01:03;;;;;;;95.88;54.70;;;;;;;2.65;100.00;98652.75;5013488;28;20048;-85
2022/11/23 10:03:35;;;;;;;109.18;59.35;;;;;;;2.58;100.00;98635.84;5029989;28;20060;-85
2022/11/23 10:06:19;;;;;;;115.47;62.58;;;;;;;2.63;100.00;98633.97;5013059;28;20544;-85
2022/11/23 10:09:03;;;;;;;142.82;72.18;;;;;;;2.74;100.00;98652.50;5029912;28;20397;-84
2022/11/23 10:11:42;;;;;;;102.65;59.92;;;;;;;2.71;100.00;98652.56;5029925;28;20036;-85
2022/11/23 10:14:40;;;;;;;107.60;60.58;;;;;;;2.72;100.00;98642.22;5029491;28;20057;-85
2022/11/23 10:17:31;;;;;;;186.23;90.55;;;;;;;2.70;100.00;98632.91;5029550;28;20239;-87
2022/11/23 10:20:12;;;;;;;100.85;58.08;;;;;;;2.75;100.00;98647.28;5012864;28;20021;-85
2022/11/23 10:22:37;;;;;;;89.78;54.92;;;;;;;2.77;100.00;98647.22;5013188;28;20041;-85
2022/11/23 10:25:18;;;;;;;121.43;69.45;;;;;;;2.77;100.00;98634.38;5029800;28;20541;-85
2022/11/23 10:27:47;;;;;;;108.78;63.63;;;;;;;2.71;100.00;98630.28;5029684;28;20036;-85
2022/11/23 10:30:15;;;;;;;127.72;71.82;;;;;;;2.75;100.00;98620.75;5030468;28;20056;-85
2022/11/23 10:32:52;;;;;;;121.57;71.40;;;;;;;2.85;100.00;98629.84;5051779;28;20106;-85
2022/11/23 10:35:27;;;;;;;143.95;82.15;;;;;;;2.81;100.00;98622.25;5051520;28;20044;-85
2022/11/23 10:38:04;;;;;;;386.13;208.38;;;;;;;2.79;100.00;98621.50;5051670;28;20021;-85
2022/11/23 10:40:30;;;;;;;182.80;100.20;;;;;;;2.82;100.00;98619.63;5034028;28;20070;-86
2022/11/23 10:42:59;;;;;;;111.82;68.47;;;;;;;2.80;100.00;98618.03;5033912;28;20020;-86
2022/11/23 10:45:27;;;;;;;161.37;107.43;;;;;;;2.87;100.00;98630.66;5033701;28;20102;-86
2022/11/23 10:47:58;;;;;;;114.43;76.00;;;;;;;2.91;100.00;98629.66;5051943;28;20029;-86
2022/11/23 10:50:43;;;;;;;112.85;68.65;;;;;;;2.94;100.00;98633.84;5051808;28;20096;-86
2022/11/23 10:53:08;;;;;;;114.00;68.35;;;;;;;2.91;100.00;98636.53;5033652;28;20017;-86
2022/11/23 10:55:53;;;;;;;137.40;79.82;;;;;;;2.88;100.00;98627.16;5033799;28;20024;-86
2022/11/23 10:58:35;;;;;;;105.45;64.28;;;;;;;2.91;100.00;98629.66;5033709;28;20064;-86
2022/11/23 11:01:06;;;;;;;110.63;65.95;;;;;;;2.82;100.00;98629.91;5033543;28;20498;-86
2022/11/23 11:03:32;;;;;;;;;;;;;;;2.89;100.00;98628.00;5009873;28;20037;-86
2022/11/23 11:05:58;;;;;;;119.43;70.30;;;;;;;2.85;100.00;98622.13;5009340;28;19972;-86
2022/11/23 11:08:31;;;;;;;124.88;72.20;;;;;;;2.86;100.00;98625.53;5009420;28;20118;-86
2022/11/23 11:11:21;;;;;;;177.45;88.40;;;;;;;2.90;100.00;98624.53;5009468;28;20033;-86
2022/11/23 11:13:47;;;;;;;131.50;72.13;;;;;;;2.85;100.00;98608.44;5009490;28;20034;-86
2022/11/23 11:16:25;;;;;;;130.45;69.50;;;;;;;2.97;100.00;98632.03;5009215;28;20033;-86